sensor_id;sensor_type;location;lat;lon;timestamp;pressure;altitude;pressure_sealevel;temperature;humidity
22605;BME280;11469;49.024;8.246;2023-07-28T00:01:49;99612.28;;;19.47;100.00
22605;BME280;11469;49.024;8.246;2023-07-28T00:04:14;99608.66;;;19.46;100.00
22605;BME280;11469;49.024;8.246;2023-07-28T00:06:39;99614.34;;;19.46;100.00
22605;BME280;11469;49.024;8.246;2023-07-28T00:09:05;99609.75;;;19.52;100.00
22605;BME280;11469;49.024;8.246;2023-07-28T00:11:30;99612.66;;;19.49;99.89
22605;BME280;11469;49.024;8.246;2023-07-28T00:13:56;99615.56;;;19.45;99.94
22605;BME280;11469;49.024;8.246;2023-07-28T00:16:21;99618.41;;;19.45;100.00
22605;BME280;11469;49.024;8.246;2023-07-28T00:18:46;99624.25;;;19.38;100.00
22605;BME280;11469;49.024;8.246;2023-07-28T00:21:12;99619.47;;;19.35;100.00
22605;BME280;11469;49.024;8.246;2023-07-28T00:23:37;99620.00;;;19.30;100.00
22605;BME280;11469;49.024;8.246;2023-07-28T00:26:03;99622.13;;;19.26;100.00
22605;BME280;11469;49.024;8.246;2023-07-28T00:28:28;99617.75;;;19.21;100.00
22605;BME280;11469;49.024;8.246;2023-07-28T00:30:53;99610.91;;;19.19;100.00
22605;BME280;11469;49.024;8.246;2023-07-28T00:33:19;99619.06;;;19.17;100.00
22605;BME280;11469;49.024;8.246;2023-07-28T00:35:44;99616.22;;;19.17;100.00
22605;BME280;11469;49.024;8.246;2023-07-28T00:38:09;99619.88;;;19.17;100.00
22605;BME280;11469;49.024;8.246;2023-07-28T00:40:35;99613.47;;;19.13;100.00
22605;BME280;11469;49.024;8.246;2023-07-28T00:43:01;99606.09;;;19.16;100.00
22605;BME280;11469;49.024;8.246;2023-07-28T00:45:27;99609.31;;;19.18;100.00
22605;BME280;11469;49.024;8.246;2023-07-28T00:47:53;99600.78;;;19.18;100.00
22605;BME280;11469;49.024;8.246;2023-07-28T00:50:18;99602.38;;;19.19;100.00
22605;BME280;11469;49.024;8.246;2023-07-28T00:52:44;99600.06;;;19.14;100.00
22605;BME280;11469;49.024;8.246;2023-07-28T00:55:12;99608.59;;;19.14;100.00
22605;BME280;11469;49.024;8.246;2023-07-28T00:57:37;99606.25;;;19.09;100.00
22605;BME280;11469;49.024;8.246;2023-07-28T01:00:05;99609.47;;;19.11;100.00
22605;BME280;11469;49.024;8.246;2023-07-28T01:02:31;99617.31;;;19.03;100.00
22605;BME280;11469;49.024;8.246;2023-07-28T01:04:57;99608.88;;;19.00;100.00
22605;BME280;11469;49.024;8.246;2023-07-28T01:10:24;99615.69;;;18.86;100.00
22605;BME280;11469;49.024;8.246;2023-07-28T01:12:51;99606.81;;;18.84;100.00
22605;BME280;11469;49.024;8.246;2023-07-28T01:15:16;99607.25;;;18.82;100.00
22605;BME280;11469;49.024;8.246;2023-07-28T01:17:42;99610.59;;;18.77;100.00
22605;BME280;11469;49.024;8.246;2023-07-28T01:20:07;99612.19;;;18.78;100.00
22605;BME280;11469;49.024;8.246;2023-07-28T01:27:58;99609.13;;;18.69;100.00
22605;BME280;11469;49.024;8.246;2023-07-28T01:30:25;99610.66;;;18.74;100.00
22605;BME280;11469;49.024;8.246;2023-07-28T01:32:54;99603.38;;;18.73;100.00
22605;BME280;11469;49.024;8.246;2023-07-28T01:35:21;99604.63;;;18.72;100.00
22605;BME280;11469;49.024;8.246;2023-07-28T01:37:46;99601.78;;;18.72;100.00
22605;BME280;11469;49.024;8.246;2023-07-28T01:40:18;99596.53;;;18.70;100.00
22605;BME280;11469;49.024;8.246;2023-07-28T01:42:44;99611.53;;;18.71;100.00
22605;BME280;11469;49.024;8.246;2023-07-28T01:45:09;99618.81;;;18.72;100.00
22605;BME280;11469;49.024;8.246;2023-07-28T01:47:35;99617.63;;;18.69;100.00
22605;BME280;11469;49.024;8.246;2023-07-28T01:50:01;99614.00;;;18.69;100.00
22605;BME280;11469;49.024;8.246;2023-07-28T01:52:26;99614.88;;;18.66;100.00
22605;BME280;11469;49.024;8.246;2023-07-28T01:54:51;99610.78;;;18.67;100.00
22605;BME280;11469;49.024;8.246;2023-07-28T01:57:17;99612.84;;;18.66;100.00
22605;BME280;11469;49.024;8.246;2023-07-28T01:59:43;99612.91;;;18.63;100.00
22605;BME280;11469;49.024;8.246;2023-07-28T02:02:09;99613.75;;;18.60;100.00
22605;BME280;11469;49.024;8.246;2023-07-28T02:04:34;99610.91;;;18.60;100.00
22605;BME280;11469;49.024;8.246;2023-07-28T02:06:59;99615.38;;;18.61;100.00
22605;BME280;11469;49.024;8.246;2023-07-28T02:09:25;99599.56;;;18.60;100.00
22605;BME280;11469;49.024;8.246;2023-07-28T02:11:51;99607.66;;;18.61;100.00
22605;BME280;11469;49.024;8.246;2023-07-28T02:14:17;99603.63;;;18.58;100.00
22605;BME280;11469;49.024;8.246;2023-07-28T02:16:42;99611.34;;;18.58;100.00
22605;BME280;11469;49.024;8.246;2023-07-28T02:19:08;99605.28;;;18.56;100.00
22605;BME280;11469;49.024;8.246;2023-07-28T02:21:33;99613.00;;;18.55;100.00
22605;BME280;11469;49.024;8.246;2023-07-28T02:23:58;99621.50;;;18.55;100.00
22605;BME280;11469;49.024;8.246;2023-07-28T02:26:24;99624.00;;;18.53;100.00
22605;BME280;11469;49.024;8.246;2023-07-28T02:28:49;99624.00;;;18.53;100.00
22605;BME280;11469;49.024;8.246;2023-07-28T02:31:15;99618.38;;;18.50;100.00
22605;BME280;11469;49.024;8.246;2023-07-28T02:33:40;99619.25;;;18.47;100.00
22605;BME280;11469;49.024;8.246;2023-07-28T02:36:05;99614.81;;;18.46;100.00
22605;BME280;11469;49.024;8.246;2023-07-28T02:38:31;99619.25;;;18.47;100.00
22605;BME280;11469;49.024;8.246;2023-07-28T02:40:56;99631.81;;;18.46;100.00
22605;BME280;11469;49.024;8.246;2023-07-28T02:43:22;99624.56;;;18.45;100.00
22605;BME280;11469;49.024;8.246;2023-07-28T02:45:53;99631.47;;;18.44;100.00
22605;BME280;11469;49.024;8.246;2023-07-28T02:48:18;99643.69;;;18.41;100.00
22605;BME280;11469;49.024;8.246;2023-07-28T02:50:46;99646.97;;;18.39;100.00
22605;BME280;11469;49.024;8.246;2023-07-28T02:53:12;99652.22;;;18.41;100.00
22605;BME280;11469;49.024;8.246;2023-07-28T02:55:45;99650.59;;;18.40;100.00
22605;BME280;11469;49.024;8.246;2023-07-28T02:58:11;99645.38;;;18.38;100.00
22605;BME280;11469;49.024;8.246;2023-07-28T03:00:38;99645.00;;;18.36;100.00
22605;BME280;11469;49.024;8.246;2023-07-28T03:03:10;99643.81;;;18.34;100.00
22605;BME280;11469;49.024;8.246;2023-07-28T03:05:39;99639.38;;;18.33;100.00
22605;BME280;11469;49.024;8.246;2023-07-28T03:08:05;99649.50;;;18.34;100.00
22605;BME280;11469;49.024;8.246;2023-07-28T03:10:31;99645.88;;;18.33;100.00
22605;BME280;11469;49.024;8.246;2023-07-28T03:12:56;99641.00;;;18.34;100.00
22605;BME280;11469;49.024;8.246;2023-07-28T03:15:22;99651.09;;;18.35;100.00
22605;BME280;11469;49.024;8.246;2023-07-28T03:17:50;99641.00;;;18.34;100.00
22605;BME280;11469;49.024;8.246;2023-07-28T03:20:16;99643.41;;;18.35;100.00
22605;BME280;11469;49.024;8.246;2023-07-28T03:22:42;99649.44;;;18.37;100.00
22605;BME280;11469;49.024;8.246;2023-07-28T03:25:08;99642.97;;;18.37;100.00
22605;BME280;11469;49.024;8.246;2023-07-28T03:27:34;99655.91;;;18.38;100.00
22605;BME280;11469;49.024;8.246;2023-07-28T03:29:59;99655.09;;;18.37;100.00
22605;BME280;11469;49.024;8.246;2023-07-28T03:32:25;99661.59;;;18.38;100.00
22605;BME280;11469;49.024;8.246;2023-07-28T03:34:50;99655.84;;;18.41;100.00
22605;BME280;11469;49.024;8.246;2023-07-28T03:37:15;99667.09;;;18.45;100.00
22605;BME280;11469;49.024;8.246;2023-07-28T03:39:41;99661.00;;;18.46;100.00
22605;BME280;11469;49.024;8.246;2023-07-28T03:42:07;99664.63;;;18.47;100.00
22605;BME280;11469;49.024;8.246;2023-07-28T03:44:33;99658.16;;;18.46;100.00
22605;BME280;11469;49.024;8.246;2023-07-28T03:46:59;99658.59;;;18.45;100.00
22605;BME280;11469;49.024;8.246;2023-07-28T03:49:24;99655.75;;;18.45;100.00
22605;BME280;11469;49.024;8.246;2023-07-28T03:51:49;99659.81;;;18.44;100.00
22605;BME280;11469;49.024;8.246;2023-07-28T03:54:15;99658.25;;;18.43;100.00
22605;BME280;11469;49.024;8.246;2023-07-28T03:56:40;99652.22;;;18.41;100.00
22605;BME280;11469;49.024;8.246;2023-07-28T03:59:06;99660.34;;;18.39;100.00
22605;BME280;11469;49.024;8.246;2023-07-28T04:01:31;99662.81;;;18.37;100.00
22605;BME280;11469;49.024;8.246;2023-07-28T04:03:57;99663.25;;;18.35;100.00
22605;BME280;11469;49.024;8.246;2023-07-28T04:09:05;99672.19;;;18.34;100.00
22605;BME280;11469;49.024;8.246;2023-07-28T04:11:32;99677.06;;;18.33;100.00
22605;BME280;11469;49.024;8.246;2023-07-28T04:13:57;99673.84;;;18.31;100.00
22605;BME280;11469;49.024;8.246;2023-07-28T04:16:22;99671.88;;;18.28;100.00
22605;BME280;11469;49.024;8.246;2023-07-28T04:18:48;99669.41;;;18.30;100.00
22605;BME280;11469;49.024;8.246;2023-07-28T04:21:13;99668.19;;;18.31;100.00
22605;BME280;11469;49.024;8.246;2023-07-28T04:23:38;99668.25;;;18.28;100.00
22605;BME280;11469;49.024;8.246;2023-07-28T04:26:04;99662.63;;;18.24;100.00
22605;BME280;11469;49.024;8.246;2023-07-28T04:28:29;99663.06;;;18.22;100.00
22605;BME280;11469;49.024;8.246;2023-07-28T04:30:54;99671.50;;;18.26;100.00
22605;BME280;11469;49.024;8.246;2023-07-28T04:33:20;99672.31;;;18.27;100.00
22605;BME280;11469;49.024;8.246;2023-07-28T04:35:45;99664.22;;;18.25;100.00
22605;BME280;11469;49.024;8.246;2023-07-28T04:38:10;99666.63;;;18.27;100.00
22605;BME280;11469;49.024;8.246;2023-07-28T04:40:36;99673.97;;;18.24;100.00
22605;BME280;11469;49.024;8.246;2023-07-28T04:43:01;99669.53;;;18.23;100.00
22605;BME280;11469;49.024;8.246;2023-07-28T04:45:26;99673.97;;;18.24;100.00
22605;BME280;11469;49.024;8.246;2023-07-28T04:47:52;99679.66;;;18.24;100.00
22605;BME280;11469;49.024;8.246;2023-07-28T04:50:18;99682.91;;;18.22;100.00
22605;BME280;11469;49.024;8.246;2023-07-28T04:52:43;99682.91;;;18.22;100.00
22605;BME280;11469;49.024;8.246;2023-07-28T04:55:09;99682.47;;;18.24;100.00
22605;BME280;11469;49.024;8.246;2023-07-28T04:57:34;99691.00;;;18.24;100.00
22605;BME280;11469;49.024;8.246;2023-07-28T04:59:59;99688.16;;;18.24;100.00
22605;BME280;11469;49.024;8.246;2023-07-28T05:02:25;99691.78;;;18.24;100.00
22605;BME280;11469;49.024;8.246;2023-07-28T05:04:50;99693.41;;;18.26;100.00
22605;BME280;11469;49.024;8.246;2023-07-28T05:07:15;99688.94;;;18.24;100.00
22605;BME280;11469;49.024;8.246;2023-07-28T05:09:41;99696.22;;;18.26;100.00
22605;BME280;11469;49.024;8.246;2023-07-28T05:12:06;99694.25;;;18.22;100.00
22605;BME280;11469;49.024;8.246;2023-07-28T05:14:32;99693.09;;;18.20;100.00
22605;BME280;11469;49.024;8.246;2023-07-28T05:16:57;99694.25;;;18.22;100.00
22605;BME280;11469;49.024;8.246;2023-07-28T05:19:23;99686.19;;;18.21;100.00
22605;BME280;11469;49.024;8.246;2023-07-28T05:21:50;99683.34;;;18.21;100.00
22605;BME280;11469;49.024;8.246;2023-07-28T05:24:16;99691.03;;;18.20;100.00
22605;BME280;11469;49.024;8.246;2023-07-28T05:26:41;99697.16;;;18.19;100.00
22605;BME280;11469;49.024;8.246;2023-07-28T05:29:06;99695.97;;;18.16;100.00
22605;BME280;11469;49.024;8.246;2023-07-28T05:31:32;99700.34;;;18.21;100.00
22605;BME280;11469;49.024;8.246;2023-07-28T05:33:57;99699.13;;;18.22;100.00
22605;BME280;11469;49.024;8.246;2023-07-28T05:36:23;99704.38;;;18.23;100.00
22605;BME280;11469;49.024;8.246;2023-07-28T05:38:48;99699.97;;;18.19;100.00
22605;BME280;11469;49.024;8.246;2023-07-28T05:41:14;99709.28;;;18.19;100.00
22605;BME280;11469;49.024;8.246;2023-07-28T05:43:40;99701.91;;;18.26;100.00
22605;BME280;11469;49.024;8.246;2023-07-28T05:46:05;99701.91;;;18.26;100.00
22605;BME280;11469;49.024;8.246;2023-07-28T05:48:31;99708.44;;;18.22;100.00
22605;BME280;11469;49.024;8.246;2023-07-28T05:50:56;99706.41;;;18.23;100.00
22605;BME280;11469;49.024;8.246;2023-07-28T05:53:21;99707.63;;;18.22;100.00
22605;BME280;11469;49.024;8.246;2023-07-28T05:55:47;99722.19;;;18.24;100.00
22605;BME280;11469;49.024;8.246;2023-07-28T05:58:13;99730.69;;;18.24;100.00
22605;BME280;11469;49.024;8.246;2023-07-28T06:00:39;99721.38;;;18.23;100.00
22605;BME280;11469;49.024;8.246;2023-07-28T06:03:06;99727.47;;;18.22;100.00
22605;BME280;11469;49.024;8.246;2023-07-28T06:05:31;99724.22;;;18.23;100.00
22605;BME280;11469;49.024;8.246;2023-07-28T06:07:56;99728.78;;;18.17;100.00
22605;BME280;11469;49.024;8.246;2023-07-28T06:10:22;99725.50;;;18.19;100.00
22605;BME280;11469;49.024;8.246;2023-07-28T06:12:48;99730.69;;;18.24;100.00
22605;BME280;11469;49.024;8.246;2023-07-28T06:15:13;99723.72;;;18.29;100.00
22605;BME280;11469;49.024;8.246;2023-07-28T06:17:38;99735.81;;;18.33;100.00
22605;BME280;11469;49.024;8.246;2023-07-28T06:20:04;99722.31;;;18.40;100.00
22605;BME280;11469;49.024;8.246;2023-07-28T06:22:30;99726.25;;;18.46;100.00
22605;BME280;11469;49.024;8.246;2023-07-28T06:24:55;99738.72;;;18.52;100.00
22605;BME280;11469;49.024;8.246;2023-07-28T06:27:20;99735.66;;;18.67;100.00
22605;BME280;11469;49.024;8.246;2023-07-28T06:29:46;99744.97;;;18.67;100.00
22605;BME280;11469;49.024;8.246;2023-07-28T06:32:11;99743.69;;;18.72;100.00
22605;BME280;11469;49.024;8.246;2023-07-28T06:34:36;99755.72;;;18.79;100.00
22605;BME280;11469;49.024;8.246;2023-07-28T06:37:02;99761.44;;;18.76;100.00
22605;BME280;11469;49.024;8.246;2023-07-28T06:39:27;99758.06;;;18.84;100.00
22605;BME280;11469;49.024;8.246;2023-07-28T06:41:55;99758.44;;;18.86;100.00
22605;BME280;11469;49.024;8.246;2023-07-28T06:44:20;99755.06;;;18.92;100.00
22605;BME280;11469;49.024;8.246;2023-07-28T06:46:46;99765.19;;;18.93;100.00
22605;BME280;11469;49.024;8.246;2023-07-28T06:49:12;99773.56;;;19.00;100.00
22605;BME280;11469;49.024;8.246;2023-07-28T06:51:38;99772.56;;;19.10;100.00
22605;BME280;11469;49.024;8.246;2023-07-28T06:54:03;99768.44;;;19.14;100.00
22605;BME280;11469;49.024;8.246;2023-07-28T06:56:28;99775.94;;;19.25;100.00
22605;BME280;11469;49.024;8.246;2023-07-28T06:58:54;99780.63;;;19.35;100.00
22605;BME280;11469;49.024;8.246;2023-07-28T07:01:19;99774.69;;;19.45;100.00
22605;BME280;11469;49.024;8.246;2023-07-28T07:03:45;99770.88;;;19.55;100.00
22605;BME280;11469;49.024;8.246;2023-07-28T07:06:10;99785.44;;;19.58;100.00
22605;BME280;11469;49.024;8.246;2023-07-28T07:08:36;99788.22;;;19.61;100.00
22605;BME280;11469;49.024;8.246;2023-07-28T07:11:01;99787.03;;;19.59;100.00
22605;BME280;11469;49.024;8.246;2023-07-28T07:13:27;99780.41;;;19.65;100.00
22605;BME280;11469;49.024;8.246;2023-07-28T07:15:52;99794.53;;;19.69;100.00
22605;BME280;11469;49.024;8.246;2023-07-28T07:18:17;99803.72;;;19.76;100.00
22605;BME280;11469;49.024;8.246;2023-07-28T07:20:43;99792.66;;;19.82;100.00
22605;BME280;11469;49.024;8.246;2023-07-28T07:23:08;99797.34;;;19.88;100.00
22605;BME280;11469;49.024;8.246;2023-07-28T07:25:34;99798.16;;;19.89;100.00
22605;BME280;11469;49.024;8.246;2023-07-28T07:27:59;99798.88;;;19.93;100.00
22605;BME280;11469;49.024;8.246;2023-07-28T07:30:25;99796.31;;;19.99;100.00
22605;BME280;11469;49.024;8.246;2023-07-28T07:32:50;99796.97;;;20.06;100.00
22605;BME280;11469;49.024;8.246;2023-07-28T07:35:15;99798.41;;;20.14;100.00
22605;BME280;11469;49.024;8.246;2023-07-28T07:37:41;99802.28;;;20.04;100.00
22605;BME280;11469;49.024;8.246;2023-07-28T07:40:07;99803.00;;;20.08;100.00
22605;BME280;11469;49.024;8.246;2023-07-28T07:42:48;99803.22;;;20.17;100.00
22605;BME280;11469;49.024;8.246;2023-07-28T07:45:14;99815.66;;;20.24;100.00
22605;BME280;11469;49.024;8.246;2023-07-28T07:47:41;99816.19;;;20.35;100.00
22605;BME280;11469;49.024;8.246;2023-07-28T07:50:08;99821.28;;;20.27;100.00
22605;BME280;11469;49.024;8.246;2023-07-28T07:52:35;99821.09;;;20.34;100.00
22605;BME280;11469;49.024;8.246;2023-07-28T07:55:01;99818.00;;;20.29;100.00
22605;BME280;11469;49.024;8.246;2023-07-28T07:57:27;99821.84;;;20.38;100.00
22605;BME280;11469;49.024;8.246;2023-07-28T07:59:53;99822.84;;;20.48;100.00
22605;BME280;11469;49.024;8.246;2023-07-28T08:02:18;99826.22;;;20.43;100.00
22605;BME280;11469;49.024;8.246;2023-07-28T08:04:44;99829.31;;;20.48;100.00
22605;BME280;11469;49.024;8.246;2023-07-28T08:07:09;99831.72;;;20.50;100.00
22605;BME280;11469;49.024;8.246;2023-07-28T08:09:34;99840.53;;;20.56;100.00
22605;BME280;11469;49.024;8.246;2023-07-28T08:12:00;99835.47;;;20.63;100.00
22605;BME280;11469;49.024;8.246;2023-07-28T08:14:26;99838.25;;;20.67;100.00
22605;BME280;11469;49.024;8.246;2023-07-28T08:16:51;99838.78;;;20.78;100.00
22605;BME280;11469;49.024;8.246;2023-07-28T08:19:16;99836.63;;;20.98;100.00
22605;BME280;11469;49.024;8.246;2023-07-28T08:21:42;99843.03;;;21.02;100.00
22605;BME280;11469;49.024;8.246;2023-07-28T08:24:08;99840.81;;;21.10;100.00
22605;BME280;11469;49.024;8.246;2023-07-28T08:26:34;99845.50;;;21.16;100.00
22605;BME280;11469;49.024;8.246;2023-07-28T08:28:59;99847.31;;;21.27;100.00
22605;BME280;11469;49.024;8.246;2023-07-28T08:31:24;99846.09;;;21.40;100.00
22605;BME280;11469;49.024;8.246;2023-07-28T08:33:50;99842.91;;;21.38;100.00
22605;BME280;11469;49.024;8.246;2023-07-28T08:36:15;99843.09;;;21.31;100.00
22605;BME280;11469;49.024;8.246;2023-07-28T08:38:41;99848.34;;;21.33;100.00
22605;BME280;11469;49.024;8.246;2023-07-28T08:41:06;99858.41;;;21.37;100.00
22605;BME280;11469;49.024;8.246;2023-07-28T08:43:32;99846.34;;;21.46;100.00
22605;BME280;11469;49.024;8.246;2023-07-28T08:45:57;99842.22;;;21.63;100.00
22605;BME280;11469;49.024;8.246;2023-07-28T08:48:24;99844.16;;;21.66;100.00
22605;BME280;11469;49.024;8.246;2023-07-28T08:50:49;99842.84;;;21.83;100.00
22605;BME280;11469;49.024;8.246;2023-07-28T08:53:17;99847.03;;;22.08;100.00
22605;BME280;11469;49.024;8.246;2023-07-28T08:55:42;99840.88;;;22.35;98.69
22605;BME280;11469;49.024;8.246;2023-07-28T08:58:18;99838.06;;;22.47;96.98
22605;BME280;11469;49.024;8.246;2023-07-28T09:00:45;99844.22;;;22.59;96.67
22605;BME280;11469;49.024;8.246;2023-07-28T09:03:14;99847.19;;;22.68;93.64
22605;BME280;11469;49.024;8.246;2023-07-28T09:05:39;99848.22;;;22.61;92.66
22605;BME280;11469;49.024;8.246;2023-07-28T09:08:06;99845.13;;;22.68;93.56
22605;BME280;11469;49.024;8.246;2023-07-28T09:10:46;99850.38;;;22.82;93.64
22605;BME280;11469;49.024;8.246;2023-07-28T09:13:15;99848.00;;;22.68;92.09
22605;BME280;11469;49.024;8.246;2023-07-28T09:15:41;99849.22;;;22.29;93.44
22605;BME280;11469;49.024;8.246;2023-07-28T09:18:12;99850.47;;;22.15;94.60
22605;BME280;11469;49.024;8.246;2023-07-28T09:20:40;99853.78;;;21.85;96.10
22605;BME280;11469;49.024;8.246;2023-07-28T09:23:07;99848.03;;;21.60;98.46
22605;BME280;11469;49.024;8.246;2023-07-28T09:25:34;99851.63;;;21.47;100.00
22605;BME280;11469;49.024;8.246;2023-07-28T09:27:59;99858.31;;;21.41;100.00
22605;BME280;11469;49.024;8.246;2023-07-28T09:30:25;99870.13;;;21.27;100.00
22605;BME280;11469;49.024;8.246;2023-07-28T09:32:55;99863.69;;;21.23;100.00
22605;BME280;11469;49.024;8.246;2023-07-28T09:35:21;99859.84;;;21.13;100.00
22605;BME280;11469;49.024;8.246;2023-07-28T09:37:49;99858.97;;;21.16;100.00
22605;BME280;11469;49.024;8.246;2023-07-28T09:40:21;99862.00;;;21.25;100.00
22605;BME280;11469;49.024;8.246;2023-07-28T09:42:48;99851.25;;;21.45;100.00
22605;BME280;11469;49.024;8.246;2023-07-28T09:45:18;99847.88;;;21.92;100.00
22605;BME280;11469;49.024;8.246;2023-07-28T09:47:45;99849.13;;;22.20;99.20
22605;BME280;11469;49.024;8.246;2023-07-28T09:50:15;99852.91;;;22.55;97.69
22605;BME280;11469;49.024;8.246;2023-07-28T09:52:49;99859.63;;;22.87;96.17
22605;BME280;11469;49.024;8.246;2023-07-28T09:55:18;99849.94;;;22.84;91.28
22605;BME280;11469;49.024;8.246;2023-07-28T09:57:56;99853.56;;;22.72;91.50
22605;BME280;11469;49.024;8.246;2023-07-28T10:00:23;99854.28;;;22.63;92.40
22605;BME280;11469;49.024;8.246;2023-07-28T10:02:49;99861.09;;;22.40;92.90
22605;BME280;11469;49.024;8.246;2023-07-28T10:05:15;99855.03;;;22.13;96.30
22605;BME280;11469;49.024;8.246;2023-07-28T10:07:44;99863.63;;;21.97;95.85
22605;BME280;11469;49.024;8.246;2023-07-28T10:10:12;99863.25;;;21.82;96.14
22605;BME280;11469;49.024;8.246;2023-07-28T10:15:09;99865.19;;;21.85;93.81
22605;BME280;11469;49.024;8.246;2023-07-28T10:17:36;99865.66;;;21.83;94.09
22605;BME280;11469;49.024;8.246;2023-07-28T10:20:03;99873.59;;;21.76;94.95
22605;BME280;11469;49.024;8.246;2023-07-28T10:22:43;99868.94;;;21.82;95.27
22605;BME280;11469;49.024;8.246;2023-07-28T10:25:10;99865.34;;;21.94;95.27
22605;BME280;11469;49.024;8.246;2023-07-28T10:27:36;99871.72;;;22.14;95.16
22605;BME280;11469;49.024;8.246;2023-07-28T10:30:04;99863.50;;;22.42;92.80
22605;BME280;11469;49.024;8.246;2023-07-28T10:32:40;99869.00;;;22.62;91.81
22605;BME280;11469;49.024;8.246;2023-07-28T10:37:38;99867.28;;;23.02;87.65
22605;BME280;11469;49.024;8.246;2023-07-28T10:42:49;99871.16;;;22.96;87.84
22605;BME280;11469;49.024;8.246;2023-07-28T10:45:15;99867.06;;;22.97;88.04
22605;BME280;11469;49.024;8.246;2023-07-28T10:47:41;99867.97;;;23.06;88.52
22605;BME280;11469;49.024;8.246;2023-07-28T10:50:10;99872.50;;;23.16;89.36
22605;BME280;11469;49.024;8.246;2023-07-28T10:52:43;99874.94;;;22.93;87.63
22605;BME280;11469;49.024;8.246;2023-07-28T10:55:13;99877.44;;;22.52;89.72
22605;BME280;11469;49.024;8.246;2023-07-28T10:57:43;99875.50;;;22.49;89.88
22605;BME280;11469;49.024;8.246;2023-07-28T11:00:10;99873.34;;;22.54;90.92
22605;BME280;11469;49.024;8.246;2023-07-28T11:02:48;99873.91;;;22.61;90.32
22605;BME280;11469;49.024;8.246;2023-07-28T11:05:20;99870.69;;;22.72;89.15
22605;BME280;11469;49.024;8.246;2023-07-28T11:07:50;99881.66;;;22.73;89.93
22605;BME280;11469;49.024;8.246;2023-07-28T11:10:16;99876.88;;;22.96;90.12
22605;BME280;11469;49.024;8.246;2023-07-28T11:12:47;99874.16;;;22.79;89.78
22605;BME280;11469;49.024;8.246;2023-07-28T11:15:15;99869.69;;;22.91;91.33
22605;BME280;11469;49.024;8.246;2023-07-28T11:17:42;99880.31;;;22.91;90.80
22605;BME280;11469;49.024;8.246;2023-07-28T11:20:19;99878.47;;;22.97;90.59
22605;BME280;11469;49.024;8.246;2023-07-28T11:22:52;99884.31;;;23.06;90.89
22605;BME280;11469;49.024;8.246;2023-07-28T11:25:17;99881.28;;;23.22;91.34
22605;BME280;11469;49.024;8.246;2023-07-28T11:27:44;99875.66;;;23.31;91.44
22605;BME280;11469;49.024;8.246;2023-07-28T11:30:12;99882.06;;;23.35;89.98
22605;BME280;11469;49.024;8.246;2023-07-28T11:32:38;99886.75;;;23.29;92.21
22605;BME280;11469;49.024;8.246;2023-07-28T11:37:29;99895.16;;;22.47;94.47
22605;BME280;11469;49.024;8.246;2023-07-28T11:39:56;99900.50;;;22.20;97.92
22605;BME280;11469;49.024;8.246;2023-07-28T11:42:22;99890.84;;;22.01;100.00
22605;BME280;11469;49.024;8.246;2023-07-28T11:44:48;99890.91;;;21.98;100.00
22605;BME280;11469;49.024;8.246;2023-07-28T11:47:17;99896.56;;;22.01;100.00
22605;BME280;11469;49.024;8.246;2023-07-28T11:49:48;99899.31;;;22.05;100.00
22605;BME280;11469;49.024;8.246;2023-07-28T11:52:14;99893.38;;;22.12;100.00
22605;BME280;11469;49.024;8.246;2023-07-28T11:54:40;99888.25;;;22.07;100.00
22605;BME280;11469;49.024;8.246;2023-07-28T11:57:07;99894.09;;;22.16;100.00
22605;BME280;11469;49.024;8.246;2023-07-28T11:59:34;99895.91;;;22.10;100.00
22605;BME280;11469;49.024;8.246;2023-07-28T12:02:02;99891.56;;;22.18;100.00
22605;BME280;11469;49.024;8.246;2023-07-28T12:04:40;99891.22;;;22.16;100.00
22605;BME280;11469;49.024;8.246;2023-07-28T12:07:16;99890.44;;;22.15;100.00
22605;BME280;11469;49.024;8.246;2023-07-28T12:12:11;99886.19;;;22.07;100.00
22605;BME280;11469;49.024;8.246;2023-07-28T12:14:36;99891.13;;;21.91;100.00
22605;BME280;11469;49.024;8.246;2023-07-28T12:17:03;99889.41;;;21.93;100.00
22605;BME280;11469;49.024;8.246;2023-07-28T12:20:02;99892.66;;;21.79;100.00
22605;BME280;11469;49.024;8.246;2023-07-28T12:22:27;99893.88;;;21.65;100.00
22605;BME280;11469;49.024;8.246;2023-07-28T12:24:54;99903.19;;;21.53;100.00
22605;BME280;11469;49.024;8.246;2023-07-28T12:27:21;99902.84;;;21.35;100.00
22605;BME280;11469;49.024;8.246;2023-07-28T12:29:50;99895.91;;;21.36;100.00
22605;BME280;11469;49.024;8.246;2023-07-28T12:32:20;99905.06;;;21.27;100.00
22605;BME280;11469;49.024;8.246;2023-07-28T12:34:45;99902.00;;;21.22;100.00
22605;BME280;11469;49.024;8.246;2023-07-28T12:37:12;99899.50;;;21.24;100.00
22605;BME280;11469;49.024;8.246;2023-07-28T12:39:38;99908.63;;;21.15;100.00
22605;BME280;11469;49.024;8.246;2023-07-28T12:42:08;99914.50;;;21.08;100.00
22605;BME280;11469;49.024;8.246;2023-07-28T12:44:35;99916.19;;;21.05;100.00
22605;BME280;11469;49.024;8.246;2023-07-28T12:47:01;99901.41;;;20.94;100.00
22605;BME280;11469;49.024;8.246;2023-07-28T12:49:29;99910.69;;;20.98;100.00
22605;BME280;11469;49.024;8.246;2023-07-28T12:51:55;99911.03;;;21.00;100.00
22605;BME280;11469;49.024;8.246;2023-07-28T12:54:22;99906.31;;;20.94;100.00
22605;BME280;11469;49.024;8.246;2023-07-28T12:56:49;99913.69;;;20.91;100.00
22605;BME280;11469;49.024;8.246;2023-07-28T12:59:15;99912.91;;;20.91;100.00
22605;BME280;11469;49.024;8.246;2023-07-28T13:01:40;99913.16;;;20.96;100.00
22605;BME280;11469;49.024;8.246;2023-07-28T13:04:06;99913.25;;;20.93;100.00
22605;BME280;11469;49.024;8.246;2023-07-28T13:06:32;99909.16;;;20.94;100.00
22605;BME280;11469;49.024;8.246;2023-07-28T13:08:58;99904.63;;;20.96;100.00
22605;BME280;11469;49.024;8.246;2023-07-28T13:11:24;99911.22;;;20.93;100.00
22605;BME280;11469;49.024;8.246;2023-07-28T13:13:49;99915.31;;;20.92;100.00